sensor_id;sensor_type;location;lat;lon;timestamp;pressure;altitude;pressure_sealevel;temperature;humidity
67099;BME280;54288;53.046;5.668;2024-01-06T00:02:16;100600.38;;;4.76;100.00
67099;BME280;54288;53.046;5.668;2024-01-06T00:04:42;100583.91;;;4.80;100.00
67099;BME280;54288;53.046;5.668;2024-01-06T00:07:11;100603.81;;;4.80;100.00
67099;BME280;54288;53.046;5.668;2024-01-06T00:09:40;100599.50;;;4.67;100.00
67099;BME280;54288;53.046;5.668;2024-01-06T00:12:07;100605.56;;;4.64;100.00
67099;BME280;54288;53.046;5.668;2024-01-06T00:14:33;100610.75;;;4.70;100.00
67099;BME280;54288;53.046;5.668;2024-01-06T00:16:59;100626.31;;;4.76;100.00
67099;BME280;54288;53.046;5.668;2024-01-06T00:19:46;100615.91;;;4.73;100.00
67099;BME280;54288;53.046;5.668;2024-01-06T00:22:17;100622.84;;;4.73;100.00
67099;BME280;54288;53.046;5.668;2024-01-06T00:24:44;100618.50;;;4.72;100.00
67099;BME280;54288;53.046;5.668;2024-01-06T00:27:10;100631.50;;;4.76;100.00
67099;BME280;54288;53.046;5.668;2024-01-06T00:29:36;100627.19;;;4.75;100.00
67099;BME280;54288;53.046;5.668;2024-01-06T00:32:03;100625.44;;;4.61;100.00
67099;BME280;54288;53.046;5.668;2024-01-06T00:34:29;100634.94;;;4.68;100.00
67099;BME280;54288;53.046;5.668;2024-01-06T00:36:55;100642.72;;;4.77;100.00
67099;BME280;54288;53.046;5.668;2024-01-06T00:39:21;100629.75;;;4.63;100.00
67099;BME280;54288;53.046;5.668;2024-01-06T00:41:47;100640.13;;;4.62;100.00
67099;BME280;54288;53.046;5.668;2024-01-06T00:44:16;100635.81;;;4.71;100.00
67099;BME280;54288;53.046;5.668;2024-01-06T00:46:45;100653.09;;;4.83;100.00
67099;BME280;54288;53.046;5.668;2024-01-06T00:49:11;100637.53;;;4.72;100.00
67099;BME280;54288;53.046;5.668;2024-01-06T00:51:38;100647.94;;;4.75;100.00
67099;BME280;54288;53.046;5.668;2024-01-06T00:54:04;100636.69;;;4.70;100.00
67099;BME280;54288;53.046;5.668;2024-01-06T00:56:30;100636.66;;;4.66;100.00
67099;BME280;54288;53.046;5.668;2024-01-06T00:58:56;100641.00;;;4.67;100.00
67099;BME280;54288;53.046;5.668;2024-01-06T01:01:22;100643.59;;;4.59;100.00
67099;BME280;54288;53.046;5.668;2024-01-06T01:03:48;100660.00;;;4.66;100.00
67099;BME280;54288;53.046;5.668;2024-01-06T01:06:15;100661.75;;;4.77;100.00
67099;BME280;54288;53.046;5.668;2024-01-06T01:08:41;100674.69;;;4.82;100.00
67099;BME280;54288;53.046;5.668;2024-01-06T01:11:07;100667.81;;;4.82;100.00
67099;BME280;54288;53.046;5.668;2024-01-06T01:13:33;100663.47;;;4.78;100.00
67099;BME280;54288;53.046;5.668;2024-01-06T01:15:59;100667.81;;;4.70;100.00
67099;BME280;54288;53.046;5.668;2024-01-06T01:18:25;100658.28;;;4.74;100.00
67099;BME280;54288;53.046;5.668;2024-01-06T01:20:52;100662.63;;;4.78;100.00
67099;BME280;54288;53.046;5.668;2024-01-06T01:23:18;100675.59;;;4.88;100.00
67099;BME280;54288;53.046;5.668;2024-01-06T01:25:44;100673.84;;;4.86;100.00
67099;BME280;54288;53.046;5.668;2024-01-06T01:28:10;100669.53;;;4.86;100.00
67099;BME280;54288;53.046;5.668;2024-01-06T01:30:36;100672.13;;;4.73;100.00
67099;BME280;54288;53.046;5.668;2024-01-06T01:33:01;100674.72;;;4.71;100.00
67099;BME280;54288;53.046;5.668;2024-01-06T01:35:28;100683.38;;;4.70;100.00
67099;BME280;54288;53.046;5.668;2024-01-06T01:37:55;100693.75;;;4.70;100.00
67099;BME280;54288;53.046;5.668;2024-01-06T01:40:21;100711.03;;;4.76;100.00
67099;BME280;54288;53.046;5.668;2024-01-06T01:42:50;100703.22;;;4.74;100.00
67099;BME280;54288;53.046;5.668;2024-01-06T01:45:19;100707.56;;;4.72;100.00
67099;BME280;54288;53.046;5.668;2024-01-06T01:47:53;100698.03;;;4.68;100.00
67099;BME280;54288;53.046;5.668;2024-01-06T01:50:19;100712.75;;;4.66;100.00
67099;BME280;54288;53.046;5.668;2024-01-06T01:52:48;100708.38;;;4.55;100.00
67099;BME280;54288;53.046;5.668;2024-01-06T01:55:14;100701.47;;;4.54;100.00
67099;BME280;54288;53.046;5.668;2024-01-06T01:57:42;100710.16;;;4.50;100.00
67099;BME280;54288;53.046;5.668;2024-01-06T02:00:08;100711.00;;;4.47;100.00
67099;BME280;54288;53.046;5.668;2024-01-06T02:02:38;100715.31;;;4.48;100.00
67099;BME280;54288;53.046;5.668;2024-01-06T02:05:04;100713.56;;;4.43;100.00
67099;BME280;54288;53.046;5.668;2024-01-06T02:07:30;100716.19;;;4.47;100.00
67099;BME280;54288;53.046;5.668;2024-01-06T02:09:56;100710.09;;;4.41;100.00
67099;BME280;54288;53.046;5.668;2024-01-06T02:12:23;100726.53;;;4.46;100.00
67099;BME280;54288;53.046;5.668;2024-01-06T02:14:49;100725.69;;;4.47;100.00
67099;BME280;54288;53.046;5.668;2024-01-06T02:17:15;100732.59;;;4.49;100.00
67099;BME280;54288;53.046;5.668;2024-01-06T02:19:41;100736.06;;;4.53;100.00
67099;BME280;54288;53.046;5.668;2024-01-06T02:22:07;100747.28;;;4.50;100.00
67099;BME280;54288;53.046;5.668;2024-01-06T02:24:33;100732.59;;;4.43;100.00
67099;BME280;54288;53.046;5.668;2024-01-06T02:26:59;100730.84;;;4.35;100.00
67099;BME280;54288;53.046;5.668;2024-01-06T02:29:25;100742.09;;;4.47;100.00
67099;BME280;54288;53.046;5.668;2024-01-06T02:31:51;100735.16;;;4.46;100.00
67099;BME280;54288;53.046;5.668;2024-01-06T02:34:17;100727.41;;;4.45;100.00
67099;BME280;54288;53.046;5.668;2024-01-06T02:36:43;100750.78;;;4.58;100.00
67099;BME280;54288;53.046;5.668;2024-01-06T02:39:09;100748.16;;;4.54;100.00
67099;BME280;54288;53.046;5.668;2024-01-06T02:41:35;100742.13;;;4.53;100.00
67099;BME280;54288;53.046;5.668;2024-01-06T02:44:03;100755.09;;;4.65;100.00
67099;BME280;54288;53.046;5.668;2024-01-06T02:46:29;100740.41;;;4.58;100.00
67099;BME280;54288;53.046;5.668;2024-01-06T02:48:55;100757.69;;;4.65;100.00
67099;BME280;54288;53.046;5.668;2024-01-06T02:51:21;100754.22;;;4.54;100.00
67099;BME280;54288;53.046;5.668;2024-01-06T02:53:47;100769.78;;;4.60;100.00
67099;BME280;54288;53.046;5.668;2024-01-06T02:56:13;100764.59;;;4.57;100.00
67099;BME280;54288;53.046;5.668;2024-01-06T02:58:39;100778.44;;;4.65;100.00
67099;BME280;54288;53.046;5.668;2024-01-06T03:01:07;100783.63;;;4.64;100.00
67099;BME280;54288;53.046;5.668;2024-01-06T03:03:33;100782.75;;;4.66;100.00
67099;BME280;54288;53.046;5.668;2024-01-06T03:05:59;100794.03;;;4.71;100.00
67099;BME280;54288;53.046;5.668;2024-01-06T03:08:25;100785.34;;;4.66;100.00
67099;BME280;54288;53.046;5.668;2024-01-06T03:10:52;100791.44;;;4.76;100.00
67099;BME280;54288;53.046;5.668;2024-01-06T03:13:18;100810.44;;;4.75;100.00
67099;BME280;54288;53.046;5.668;2024-01-06T03:15:44;100784.47;;;4.61;100.00
67099;BME280;54288;53.046;5.668;2024-01-06T03:18:10;100807.84;;;4.73;100.00
67099;BME280;54288;53.046;5.668;2024-01-06T03:20:35;100798.31;;;4.65;100.00
67099;BME280;54288;53.046;5.668;2024-01-06T03:23:01;100792.28;;;4.63;100.00
67099;BME280;54288;53.046;5.668;2024-01-06T03:25:27;100794.88;;;4.70;100.00
67099;BME280;54288;53.046;5.668;2024-01-06T03:27:53;100806.97;;;4.70;100.00
67099;BME280;54288;53.046;5.668;2024-01-06T03:30:21;100819.97;;;4.73;100.00
67099;BME280;54288;53.046;5.668;2024-01-06T03:32:47;100804.38;;;4.61;100.00
67099;BME280;54288;53.046;5.668;2024-01-06T03:35:13;100814.75;;;4.61;100.00
67099;BME280;54288;53.046;5.668;2024-01-06T03:37:39;100824.22;;;4.57;100.00
67099;BME280;54288;53.046;5.668;2024-01-06T03:40:07;100833.75;;;4.58;100.00
67099;BME280;54288;53.046;5.668;2024-01-06T03:42:33;100827.69;;;4.56;100.00
67099;BME280;54288;53.046;5.668;2024-01-06T03:44:59;100840.66;;;4.62;100.00
67099;BME280;54288;53.046;5.668;2024-01-06T03:47:25;100845.84;;;4.59;100.00
67099;BME280;54288;53.046;5.668;2024-01-06T03:49:51;100857.94;;;4.63;100.00
67099;BME280;54288;53.046;5.668;2024-01-06T03:52:17;100858.84;;;4.65;100.00
67099;BME280;54288;53.046;5.668;2024-01-06T03:54:43;100852.75;;;4.57;100.00
67099;BME280;54288;53.046;5.668;2024-01-06T03:57:09;100854.50;;;4.67;100.00
67099;BME280;54288;53.046;5.668;2024-01-06T03:59:34;100857.13;;;4.67;100.00
67099;BME280;54288;53.046;5.668;2024-01-06T04:02:00;100847.59;;;4.65;100.00
67099;BME280;54288;53.046;5.668;2024-01-06T04:04:26;100845.88;;;4.65;100.00
67099;BME280;54288;53.046;5.668;2024-01-06T04:06:52;100866.63;;;4.68;100.00
67099;BME280;54288;53.046;5.668;2024-01-06T04:09:18;100864.03;;;4.65;100.00
67099;BME280;54288;53.046;5.668;2024-01-06T04:11:44;100882.19;;;4.74;100.00
67099;BME280;54288;53.046;5.668;2024-01-06T04:14:10;100864.03;;;4.64;100.00
67099;BME280;54288;53.046;5.668;2024-01-06T04:16:35;100883.91;;;4.71;100.00
67099;BME280;54288;53.046;5.668;2024-01-06T04:19:02;100867.47;;;4.61;100.00
67099;BME280;54288;53.046;5.668;2024-01-06T04:21:28;100883.06;;;4.72;100.00
67099;BME280;54288;53.046;5.668;2024-01-06T04:23:53;100888.28;;;4.76;100.00
67099;BME280;54288;53.046;5.668;2024-01-06T04:26:21;100885.66;;;4.73;100.00
67099;BME280;54288;53.046;5.668;2024-01-06T04:28:47;100880.44;;;4.66;100.00
67099;BME280;54288;53.046;5.668;2024-01-06T04:31:12;100876.09;;;4.57;100.00
67099;BME280;54288;53.046;5.668;2024-01-06T04:33:38;100891.72;;;4.72;100.00
67099;BME280;54288;53.046;5.668;2024-01-06T04:36:06;100899.47;;;4.71;100.00
67099;BME280;54288;53.046;5.668;2024-01-06T04:38:32;100894.31;;;4.72;100.00
67099;BME280;54288;53.046;5.668;2024-01-06T04:40:58;100897.78;;;4.80;100.00
67099;BME280;54288;53.046;5.668;2024-01-06T04:43:24;100883.94;;;4.69;100.00
67099;BME280;54288;53.046;5.668;2024-01-06T04:45:49;100903.00;;;4.79;100.00
67099;BME280;54288;53.046;5.668;2024-01-06T04:48:15;100906.44;;;4.76;100.00
67099;BME280;54288;53.046;5.668;2024-01-06T04:50:41;100913.34;;;4.77;100.00
67099;BME280;54288;53.046;5.668;2024-01-06T04:53:08;100918.53;;;4.77;100.00
67099;BME280;54288;53.046;5.668;2024-01-06T04:55:33;100920.28;;;4.78;100.00
67099;BME280;54288;53.046;5.668;2024-01-06T04:57:59;100921.13;;;4.71;100.00
67099;BME280;54288;53.046;5.668;2024-01-06T05:00:25;100929.78;;;4.81;100.00
67099;BME280;54288;53.046;5.668;2024-01-06T05:02:51;100926.31;;;4.80;100.00
67099;BME280;54288;53.046;5.668;2024-01-06T05:05:17;100934.97;;;4.79;100.00
67099;BME280;54288;53.046;5.668;2024-01-06T05:07:43;100933.25;;;4.78;100.00
67099;BME280;54288;53.046;5.668;2024-01-06T05:10:09;100942.75;;;4.79;100.00
67099;BME280;54288;53.046;5.668;2024-01-06T05:12:34;100944.50;;;4.82;100.00
67099;BME280;54288;53.046;5.668;2024-01-06T05:15:00;100954.88;;;4.82;100.00
67099;BME280;54288;53.046;5.668;2024-01-06T05:17:26;100965.22;;;4.77;100.00
67099;BME280;54288;53.046;5.668;2024-01-06T05:19:52;100956.56;;;4.68;100.00
67099;BME280;54288;53.046;5.668;2024-01-06T05:22:18;100952.19;;;4.61;100.00
67099;BME280;54288;53.046;5.668;2024-01-06T05:24:44;100956.53;;;4.62;100.00
67099;BME280;54288;53.046;5.668;2024-01-06T05:27:12;100966.88;;;4.60;100.00
67099;BME280;54288;53.046;5.668;2024-01-06T05:29:38;100958.22;;;4.58;100.00
67099;BME280;54288;53.046;5.668;2024-01-06T05:32:04;100973.81;;;4.64;100.00
67099;BME280;54288;53.046;5.668;2024-01-06T05:34:31;100968.56;;;4.55;100.00
67099;BME280;54288;53.046;5.668;2024-01-06T05:36:57;100979.88;;;4.71;100.00
67099;BME280;54288;53.046;5.668;2024-01-06T05:39:23;100979.88;;;4.66;100.00
67099;BME280;54288;53.046;5.668;2024-01-06T05:41:51;100973.78;;;4.58;100.00
67099;BME280;54288;53.046;5.668;2024-01-06T05:44:20;100978.94;;;4.54;100.00
67099;BME280;54288;53.046;5.668;2024-01-06T05:46:46;100996.28;;;4.62;100.00
67099;BME280;54288;53.046;5.668;2024-01-06T05:49:13;100996.28;;;4.62;100.00
67099;BME280;54288;53.046;5.668;2024-01-06T05:51:49;100991.03;;;4.53;100.00
67099;BME280;54288;53.046;5.668;2024-01-06T05:54:15;100998.84;;;4.59;100.00
67099;BME280;54288;53.046;5.668;2024-01-06T05:57:08;100994.53;;;4.58;100.00
67099;BME280;54288;53.046;5.668;2024-01-06T05:59:44;101011.81;;;4.59;100.00
67099;BME280;54288;53.046;5.668;2024-01-06T06:02:11;101000.53;;;4.51;100.00
67099;BME280;54288;53.046;5.668;2024-01-06T06:04:59;101015.28;;;4.58;100.00
67099;BME280;54288;53.046;5.668;2024-01-06T06:07:39;101013.53;;;4.59;100.00
67099;BME280;54288;53.046;5.668;2024-01-06T06:10:16;101021.34;;;4.63;100.00
67099;BME280;54288;53.046;5.668;2024-01-06T06:13:46;101022.19;;;4.62;100.00
67099;BME280;54288;53.046;5.668;2024-01-06T06:16:22;101026.53;;;4.62;100.00
67099;BME280;54288;53.046;5.668;2024-01-06T06:18:58;101031.72;;;4.62;100.00
67099;BME280;54288;53.046;5.668;2024-01-06T06:21:48;101042.97;;;4.68;100.00
67099;BME280;54288;53.046;5.668;2024-01-06T06:25:40;101043.88;;;4.73;100.00
67099;BME280;54288;53.046;5.668;2024-01-06T06:28:25;101054.25;;;4.70;100.00
67099;BME280;54288;53.046;5.668;2024-01-06T06:32:23;101054.28;;;4.76;100.00
67099;BME280;54288;53.046;5.668;2024-01-06T06:44:45;101094.09;;;4.83;100.00
67099;BME280;54288;53.046;5.668;2024-01-06T06:47:51;101088.03;;;4.76;100.00
67099;BME280;54288;53.046;5.668;2024-01-06T06:50:35;101096.72;;;4.81;100.00
67099;BME280;54288;53.046;5.668;2024-01-06T07:04:02;101119.16;;;4.78;100.00
67099;BME280;54288;53.046;5.668;2024-01-06T07:09:49;101127.78;;;4.77;100.00
67099;BME280;54288;53.046;5.668;2024-01-06T07:31:51;101152.00;;;4.77;100.00
67099;BME280;54288;53.046;5.668;2024-01-06T07:34:44;101162.38;;;4.80;100.00
67099;BME280;54288;53.046;5.668;2024-01-06T07:37:24;101165.84;;;4.79;100.00
67099;BME280;54288;53.046;5.668;2024-01-06T07:40:27;101167.59;;;4.80;100.00
67099;BME280;54288;53.046;5.668;2024-01-06T07:59:40;101210.09;;;4.94;100.00
67099;BME280;54288;53.046;5.668;2024-01-06T08:03:00;101218.75;;;4.93;100.00
67099;BME280;54288;53.046;5.668;2024-01-06T08:06:27;101207.41;;;4.82;100.00
67099;BME280;54288;53.046;5.668;2024-01-06T08:17:58;101241.34;;;5.08;100.00
67099;BME280;54288;53.046;5.668;2024-01-06T08:21:36;101241.31;;;5.06;100.00
67099;BME280;54288;53.046;5.668;2024-01-06T08:24:35;101243.91;;;5.03;100.00
67099;BME280;54288;53.046;5.668;2024-01-06T08:54:45;101277.69;;;5.11;100.00
67099;BME280;54288;53.046;5.668;2024-01-06T09:13:46;101296.53;;;4.90;100.00
67099;BME280;54288;53.046;5.668;2024-01-06T09:44:50;101340.72;;;4.98;100.00
67099;BME280;54288;53.046;5.668;2024-01-06T09:47:18;101361.59;;;5.08;100.00
67099;BME280;54288;53.046;5.668;2024-01-06T09:49:48;101347.63;;;4.97;100.00
67099;BME280;54288;53.046;5.668;2024-01-06T09:52:16;101363.28;;;5.05;100.00
67099;BME280;54288;53.046;5.668;2024-01-06T09:54:57;101361.47;;;4.93;100.00
67099;BME280;54288;53.046;5.668;2024-01-06T09:57:25;101358.88;;;4.93;100.00
67099;BME280;54288;53.046;5.668;2024-01-06T09:59:52;101377.09;;;5.02;100.00
67099;BME280;54288;53.046;5.668;2024-01-06T10:02:18;101366.72;;;4.99;100.00
67099;BME280;54288;53.046;5.668;2024-01-06T10:04:46;101377.09;;;5.02;100.00
67099;BME280;54288;53.046;5.668;2024-01-06T10:07:12;101373.59;;;4.99;100.00
67099;BME280;54288;53.046;5.668;2024-01-06T10:09:43;101376.22;;;4.99;100.00
67099;BME280;54288;53.046;5.668;2024-01-06T10:12:10;101371.84;;;4.93;100.00
67099;BME280;54288;53.046;5.668;2024-01-06T10:14:38;101363.19;;;4.94;100.00
67099;BME280;54288;53.046;5.668;2024-01-06T10:17:08;101367.56;;;4.98;100.00
67099;BME280;54288;53.046;5.668;2024-01-06T10:19:35;101379.69;;;5.02;100.00
67099;BME280;54288;53.046;5.668;2024-01-06T10:22:04;101360.66;;;5.00;100.00
67099;BME280;54288;53.046;5.668;2024-01-06T10:24:31;101373.66;;;5.02;100.00
67099;BME280;54288;53.046;5.668;2024-01-06T10:27:00;101384.94;;;5.05;100.00
67099;BME280;54288;53.046;5.668;2024-01-06T10:29:32;101393.66;;;5.13;100.00
67099;BME280;54288;53.046;5.668;2024-01-06T10:32:01;101399.72;;;5.12;100.00
67099;BME280;54288;53.046;5.668;2024-01-06T10:34:28;101386.69;;;5.08;100.00
67099;BME280;54288;53.046;5.668;2024-01-06T10:36:57;101404.94;;;5.17;100.00
67099;BME280;54288;53.046;5.668;2024-01-06T10:39:23;101398.84;;;5.10;100.00
67099;BME280;54288;53.046;5.668;2024-01-06T10:41:52;101404.91;;;5.12;100.00
67099;BME280;54288;53.046;5.668;2024-01-06T10:44:21;101385.75;;;5.01;100.00
67099;BME280;54288;53.046;5.668;2024-01-06T10:46:48;101397.13;;;5.12;100.00
67099;BME280;54288;53.046;5.668;2024-01-06T10:49:23;101392.81;;;5.13;100.00
67099;BME280;54288;53.046;5.668;2024-01-06T10:52:00;101388.38;;;5.06;100.00
67099;BME280;54288;53.046;5.668;2024-01-06T10:54:28;101403.09;;;5.05;100.00
67099;BME280;54288;53.046;5.668;2024-01-06T10:56:57;101397.94;;;5.08;100.00
67099;BME280;54288;53.046;5.668;2024-01-06T10:59:33;101395.28;;;5.01;100.00
67099;BME280;54288;53.046;5.668;2024-01-06T11:02:12;101393.50;;;4.97;100.00
67099;BME280;54288;53.046;5.668;2024-01-06T11:04:40;101393.44;;;4.91;100.00
67099;BME280;54288;53.046;5.668;2024-01-06T11:07:07;101406.56;;;5.06;100.00
67099;BME280;54288;53.046;5.668;2024-01-06T11:09:37;101412.63;;;5.06;100.00
67099;BME280;54288;53.046;5.668;2024-01-06T11:12:06;101405.72;;;5.07;100.00
67099;BME280;54288;53.046;5.668;2024-01-06T11:14:41;101414.44;;;5.15;100.00
67099;BME280;54288;53.046;5.668;2024-01-06T11:17:54;101422.13;;;5.04;100.00
67099;BME280;54288;53.046;5.668;2024-01-06T11:20:38;101402.91;;;4.87;100.00
67099;BME280;54288;53.046;5.668;2024-01-06T11:23:19;101410.81;;;4.99;100.00
67099;BME280;54288;53.046;5.668;2024-01-06T11:25:49;101409.97;;;5.00;100.00
67099;BME280;54288;53.046;5.668;2024-01-06T11:28:16;101424.00;;;5.17;100.00
67099;BME280;54288;53.046;5.668;2024-01-06T11:30:42;101419.63;;;5.15;100.00
67099;BME280;54288;53.046;5.668;2024-01-06T11:33:08;101412.59;;;5.05;100.00
67099;BME280;54288;53.046;5.668;2024-01-06T11:35:37;101410.78;;;4.96;100.00
67099;BME280;54288;53.046;5.668;2024-01-06T11:38:06;101415.03;;;4.88;100.00
67099;BME280;54288;53.046;5.668;2024-01-06T11:40:36;101405.50;;;4.89;100.00
67099;BME280;54288;53.046;5.668;2024-01-06T11:43:10;101415.97;;;4.95;100.00
67099;BME280;54288;53.046;5.668;2024-01-06T11:45:41;101430.69;;;4.97;100.00
67099;BME280;54288;53.046;5.668;2024-01-06T11:48:10;101424.63;;;4.97;100.00
67099;BME280;54288;53.046;5.668;2024-01-06T11:50:39;101418.56;;;4.93;100.00
67099;BME280;54288;53.046;5.668;2024-01-06T11:53:07;101429.84;;;5.00;100.00
67099;BME280;54288;53.046;5.668;2024-01-06T11:55:33;101423.84;;;5.01;100.00
67099;BME280;54288;53.046;5.668;2024-01-06T11:58:00;101435.13;;;5.04;100.00
67099;BME280;54288;53.046;5.668;2024-01-06T12:00:32;101429.00;;;4.99;100.00
67099;BME280;54288;53.046;5.668;2024-01-06T12:02:59;101438.50;;;4.99;100.00
67099;BME280;54288;53.046;5.668;2024-01-06T12:05:26;101432.38;;;4.92;100.00
67099;BME280;54288;53.046;5.668;2024-01-06T12:07:57;101441.06;;;4.96;100.00
67099;BME280;54288;53.046;5.668;2024-01-06T12:10:25;101436.56;;;4.83;100.00
67099;BME280;54288;53.046;5.668;2024-01-06T12:13:02;101437.50;;;4.86;100.00
67099;BME280;54288;53.046;5.668;2024-01-06T12:15:30;101434.09;;;4.92;100.00
67099;BME280;54288;53.046;5.668;2024-01-06T12:18:05;101443.69;;;4.99;100.00
67099;BME280;54288;53.046;5.668;2024-01-06T12:20:32;101429.75;;;4.91;100.00
67099;BME280;54288;53.046;5.668;2024-01-06T12:22:59;101446.31;;;5.00;100.00
67099;BME280;54288;53.046;5.668;2024-01-06T12:28:54;101426.94;;;4.74;100.00
67099;BME280;54288;53.046;5.668;2024-01-06T12:31:23;101433.91;;;4.75;100.00
67099;BME280;54288;53.046;5.668;2024-01-06T12:33:52;101456.53;;;4.88;100.00
67099;BME280;54288;53.046;5.668;2024-01-06T12:36:21;101455.53;;;4.77;100.00
67099;BME280;54288;53.046;5.668;2024-01-06T12:38:47;101448.59;;;4.75;100.00
67099;BME280;54288;53.046;5.668;2024-01-06T12:41:13;101458.22;;;4.83;100.00
67099;BME280;54288;53.046;5.668;2024-01-06T12:43:39;101441.59;;;4.71;100.00
67099;BME280;54288;53.046;5.668;2024-01-06T12:46:05;101453.81;;;4.79;100.00
67099;BME280;54288;53.046;5.668;2024-01-06T12:48:37;101441.53;;;4.65;100.00
67099;BME280;54288;53.046;5.668;2024-01-06T12:51:03;101449.34;;;4.66;100.00
67099;BME280;54288;53.046;5.668;2024-01-06T12:53:35;101449.25;;;4.60;100.00
67099;BME280;54288;53.046;5.668;2024-01-06T13:01:58;101460.75;;;4.80;100.00
67099;BME280;54288;53.046;5.668;2024-01-06T13:04:25;101484.22;;;4.86;100.00
67099;BME280;54288;53.046;5.668;2024-01-06T13:07:11;101484.19;;;4.88;100.00
67099;BME280;54288;53.046;5.668;2024-01-06T13:10:10;101478.13;;;4.86;100.00
67099;BME280;54288;53.046;5.668;2024-01-06T13:27:06;101478.78;;;4.70;100.00
67099;BME280;54288;53.046;5.668;2024-01-06T13:29:54;101497.84;;;4.73;100.00
67099;BME280;54288;53.046;5.668;2024-01-06T13:32:20;101514.28;;;4.72;100.00
67099;BME280;54288;53.046;5.668;2024-01-06T13:34:48;101499.41;;;4.59;100.00
67099;BME280;54288;53.046;5.668;2024-01-06T13:37:19;101516.75;;;4.65;100.00
67099;BME280;54288;53.046;5.668;2024-01-06T13:39:48;101492.41;;;4.55;100.00
67099;BME280;54288;53.046;5.668;2024-01-06T13:42:14;101508.84;;;4.57;100.00
67099;BME280;54288;53.046;5.668;2024-01-06T13:47:30;101511.47;;;4.56;100.00
67099;BME280;54288;53.046;5.668;2024-01-06T13:50:04;101510.56;;;4.55;100.00
67099;BME280;54288;53.046;5.668;2024-01-06T13:52:33;101512.38;;;4.62;100.00
67099;BME280;54288;53.046;5.668;2024-01-06T13:55:04;101533.06;;;4.56;100.00
67099;BME280;54288;53.046;5.668;2024-01-06T14:00:08;101520.19;;;4.61;100.00
67099;BME280;54288;53.046;5.668;2024-01-06T14:02:37;101510.56;;;4.55;100.00
67099;BME280;54288;53.046;5.668;2024-01-06T14:05:05;101520.91;;;4.54;100.00
67099;BME280;54288;53.046;5.668;2024-01-06T14:07:37;101530.41;;;4.52;100.00
67099;BME280;54288;53.046;5.668;2024-01-06T14:10:08;101550.56;;;4.69;100.00
67099;BME280;54288;53.046;5.668;2024-01-06T14:12:34;101537.44;;;4.60;100.00
67099;BME280;54288;53.046;5.668;2024-01-06T14:15:10;101540.09;;;4.65;100.00
67099;BME280;54288;53.046;5.668;2024-01-06T14:17:38;101559.25;;;4.74;100.00
67099;BME280;54288;53.046;5.668;2024-01-06T14:22:50;101534.78;;;4.56;100.00
67099;BME280;54288;53.046;5.668;2024-01-06T14:25:21;101554.75;;;4.61;100.00
67099;BME280;54288;53.046;5.668;2024-01-06T14:27:47;101561.72;;;4.65;100.00
67099;BME280;54288;53.046;5.668;2024-01-06T14:30:14;101557.22;;;4.54;100.00
67099;BME280;54288;53.046;5.668;2024-01-06T14:32:40;101562.41;;;4.54;100.00
67099;BME280;54288;53.046;5.668;2024-01-06T14:35:07;101553.78;;;4.53;100.00
67099;BME280;54288;53.046;5.668;2024-01-06T14:37:36;101589.31;;;4.60;100.00
67099;BME280;54288;53.046;5.668;2024-01-06T14:40:30;101580.66;;;4.58;100.00
67099;BME280;54288;53.046;5.668;2024-01-06T14:42:56;101590.31;;;4.67;100.00
67099;BME280;54288;53.046;5.668;2024-01-06T14:45:23;101592.81;;;4.64;100.00
67099;BME280;54288;53.046;5.668;2024-01-06T14:47:52;101581.56;;;4.62;100.00
67099;BME280;54288;53.046;5.668;2024-01-06T14:50:18;101594.31;;;4.48;100.00
67099;BME280;54288;53.046;5.668;2024-01-06T14:52:44;101589.97;;;4.46;100.00
67099;BME280;54288;53.046;5.668;2024-01-06T14:55:10;101595.28;;;4.53;100.00
67099;BME280;54288;53.046;5.668;2024-01-06T14:57:36;101607.50;;;4.62;100.00
67099;BME280;54288;53.046;5.668;2024-01-06T15:00:04;101587.53;;;4.56;100.00
67099;BME280;54288;53.046;5.668;2024-01-06T15:02:30;101597.88;;;4.56;100.00
67099;BME280;54288;53.046;5.668;2024-01-06T15:04:56;101610.78;;;4.52;100.00
67099;BME280;54288;53.046;5.668;2024-01-06T15:07:26;101616.81;;;4.49;100.00
67099;BME280;54288;53.046;5.668;2024-01-06T15:09:52;101610.66;;;4.44;100.00
67099;BME280;54288;53.046;5.668;2024-01-06T15:12:18;101627.13;;;4.46;100.00
67099;BME280;54288;53.046;5.668;2024-01-06T15:14:44;101620.81;;;4.31;100.00
67099;BME280;54288;53.046;5.668;2024-01-06T15:17:10;101615.50;;;4.25;100.00
67099;BME280;54288;53.046;5.668;2024-01-06T15:19:36;101643.56;;;4.47;100.00
67099;BME280;54288;53.046;5.668;2024-01-06T15:22:03;101619.22;;;4.40;100.00
67099;BME280;54288;53.046;5.668;2024-01-06T15:24:30;101622.66;;;4.38;100.00
67099;BME280;54288;53.046;5.668;2024-01-06T15:26:56;101621.03;;;4.44;100.00
67099;BME280;54288;53.046;5.668;2024-01-06T15:29:22;101634.81;;;4.42;100.00
67099;BME280;54288;53.046;5.668;2024-01-06T15:31:48;101625.25;;;4.36;100.00
67099;BME280;54288;53.046;5.668;2024-01-06T15:34:14;101638.19;;;4.36;100.00
67099;BME280;54288;53.046;5.668;2024-01-06T15:36:40;101643.47;;;4.41;100.00
67099;BME280;54288;53.046;5.668;2024-01-06T15:39:06;101641.50;;;4.28;100.00
67099;BME280;54288;53.046;5.668;2024-01-06T15:41:32;101648.50;;;4.33;100.00
67099;BME280;54288;53.046;5.668;2024-01-06T15:43:58;101655.34;;;4.30;100.00
67099;BME280;54288;53.046;5.668;2024-01-06T15:46:24;101654.38;;;4.23;100.00
67099;BME280;54288;53.046;5.668;2024-01-06T15:48:50;101658.66;;;4.21;100.00
67099;BME280;54288;53.046;5.668;2024-01-06T15:51:16;101656.84;;;4.17;100.00
67099;BME280;54288;53.046;5.668;2024-01-06T15:53:44;101655.94;;;4.14;100.00
67099;BME280;54288;53.046;5.668;2024-01-06T15:56:12;101671.47;;;4.14;100.00
67099;BME280;54288;53.046;5.668;2024-01-06T15:58:39;101661.88;;;4.08;100.00
67099;BME280;54288;53.046;5.668;2024-01-06T16:01:07;101682.66;;;4.10;100.00